Latest Coastal Weather Observations for Cape Ferguson

IDQ60701

Issued at 9:51 am EST Sunday 14 February 2016 (issued every 10 minutes, with the page automatically refreshed every 10 minutes)

About coastal observations | Map of coastal stations | Coastal observations for QLD | Marine services | Other Formats
Station Details ID: 032182 Name: CAPE FERGUSON NTC AWS Lat: -19.28 Lon: 147.06 Height: 0.0 m
Data from the previous 72 hours. | See also: Recent months for locations in Queensland
Date/Time
EST
Temp

°C
Wind Pressure Rain
since 9am
mm
Weather Cloud Vis
km
Sea
Height
m
Swell
Dir
 
Speed
knots
Gust
knots
hPa Trend Height
m
Period
s
Dir
14/09:30am 28.0 SE 4 6 1008.1 - - - - - - - - -
14/09:00am 27.6 SSE 4 7 1008.0 - - - - - - - - -
14/08:30am 27.3 SSE 4 5 1007.9 - - - - - - - - -
14/08:00am 26.8 SSW 6 9 1007.9 - - - - - - - - -
14/07:30am 26.6 W 2 3 1007.7 - - - - - - - - -
14/07:00am 25.7 NW 2 4 1007.5 - - - - - - - - -
14/06:30am 25.3 WNW 3 4 1007.1 - - - - - - - - -
14/06:00am 25.2 W 1 3 1007.0 - - - - - - - - -
14/05:30am 25.6 WSW 2 5 1006.7 - - - - - - - - -
14/05:00am 25.8 NW 1 3 1006.5 - - - - - - - - -
14/04:30am 25.9 W 2 4 1006.4 - - - - - - - - -
14/04:00am 26.1 WNW 2 3 1006.4 - - - - - - - - -
14/03:30am 26.4 W 2 4 1006.5 - - - - - - - - -
14/03:00am 27.0 NW 2 4 1006.6 - - - - - - - - -
14/02:30am 27.4 WNW 2 4 1006.8 - - - - - - - - -
14/02:00am 26.6 NW 2 3 1007.1 - - - - - - - - -
14/01:30am 26.6 NW 2 4 1007.4 - - - - - - - - -
14/01:00am 27.1 NW 2 3 1007.8 - - - - - - - - -
14/12:30am 27.4 NW 2 3 1008.1 - - - - - - - - -
14/12:00am 27.5 NW 3 4 1008.4 - - - - - - - - -
 
Date/Time
EST
Temp

°C
Wind Pressure Rain
since 9am
mm
Weather Cloud Vis
km
Sea
Height
m
Swell
Dir
 
Speed
knots
Gust
knots
hPa Trend Height
m
Period
s
Dir
13/11:30pm 27.8 NW 3 5 1008.5 - - - - - - - - -
13/11:00pm 27.7 NW 2 4 1008.5 - - - - - - - - -
13/10:30pm 27.9 NNW 2 3 1008.4 - - - - - - - - -
13/10:00pm 28.0 NNW 2 4 1008.3 - - - - - - - - -
13/09:30pm 28.1 NNW 3 5 1007.9 - - - - - - - - -
13/09:00pm 28.2 NNW 3 5 1007.8 - - - - - - - - -
13/08:30pm 28.4 NNW 3 5 1007.4 - - - - - - - - -
13/08:00pm 28.4 NNW 1 3 1007.1 - - - - - - - - -
13/07:30pm 28.4 NW 2 5 1006.8 - - - - - - - - -
13/07:00pm 28.8 NW 2 5 1006.6 - - - - - - - - -
13/06:30pm 29.1 ENE 2 8 1006.3 - - - - - - - - -
13/06:00pm 29.0 NE 5 10 1006.0 - - - - - - - - -
13/05:30pm 29.3 NE 6 11 1005.6 - - - - - - - - -
13/05:00pm 29.6 NE 4 10 1005.3 - - - - - - - - -
13/04:30pm 29.4 NE 5 11 1005.2 - - - - - - - - -
13/04:00pm 29.4 NNE 6 12 1005.1 - - - - - - - - -
13/03:30pm 29.4 NE 6 12 1005.4 - - - - - - - - -
13/03:00pm 29.4 NE 7 12 1005.6 - - - - - - - - -
13/02:30pm 29.3 NNE 7 14 1005.9 - - - - - - - - -
13/02:00pm 29.2 ENE 7 10 1006.1 - - - - - - - - -
13/01:30pm 28.7 ENE 7 9 1006.5 - - - - - - - - -
13/01:00pm 28.9 ENE 7 11 1007.0 - - - - - - - - -
13/12:30pm 29.4 NE 4 7 1007.3 - - - - - - - - -
13/12:00pm 29.1 NNE 3 7 1007.8 - - - - - - - - -
13/11:30am 28.8 ENE 4 6 1008.2 - - - - - - - - -
13/11:00am 28.1 ENE 5 7 1008.5 - - - - - - - - -
13/10:30am 27.9 E 4 5 1008.7 - - - - - - - - -
13/10:00am 27.9 ESE 4 6 1008.8 - - - - - - - - -
13/09:30am 27.8 SE 3 5 1008.8 - - - - - - - - -
13/09:00am 27.6 SE 4 6 1008.9 - - - - - - - - -
13/08:30am 27.3 SE 5 7 1008.8 - - - - - - - - -
13/08:00am 27.3 SSE 4 6 1008.6 - - - - - - - - -
13/07:30am 27.3 SSE 3 5 1008.4 - - - - - - - - -
13/07:00am 27.0 SSE 6 8 1008.1 - - - - - - - - -
13/06:30am 27.0 SSE 7 9 1007.8 - - - - - - - - -
13/06:00am 26.8 S 8 11 1007.7 - - - - - - - - -
13/05:30am 26.1 WSW 3 5 1007.5 - - - - - - - - -
13/05:00am 26.1 SW 3 9 1007.2 - - - - - - - - -
13/04:30am 26.2 WSW 4 7 1007.0 - - - - - - - - -
13/04:00am 26.3 WSW 3 5 1007.0 - - - - - - - - -
13/03:30am 26.7 W 4 8 1006.8 - - - - - - - - -
13/03:00am 27.2 S 7 9 1006.9 - - - - - - - - -
13/02:30am 27.6 S 8 10 1007.1 - - - - - - - - -
13/02:00am 27.9 SSE 7 9 1007.3 - - - - - - - - -
13/01:30am 28.3 SE 6 8 1007.8 - - - - - - - - -
13/01:00am 28.5 ESE 7 9 1008.0 - - - - - - - - -
13/12:30am 28.7 SE 8 11 1008.5 - - - - - - - - -
13/12:00am 28.9 ESE 8 10 1008.9 - - - - - - - - -
 
Date/Time
EST
Temp

°C
Wind Pressure Rain
since 9am
mm
Weather Cloud Vis
km
Sea
Height
m
Swell
Dir
 
Speed
knots
Gust
knots
hPa Trend Height
m
Period
s
Dir
12/11:30pm 28.6 ESE 6 8 1009.2 - - - - - - - - -
12/11:00pm 28.6 E 7 9 1009.4 - - - - - - - - -
12/10:30pm 28.7 ENE 8 11 1009.4 - - - - - - - - -
12/10:00pm 28.8 ENE 9 11 1009.4 - - - - - - - - -
12/09:30pm 28.9 E 9 11 1009.2 - - - - - - - - -
12/09:00pm 29.3 E 9 13 1008.8 - - - - - - - - -
12/08:30pm 29.3 E 7 10 1008.5 - - - - - - - - -
12/08:00pm 28.8 ENE 7 9 1008.1 - - - - - - - - -
12/07:30pm 28.7 ENE 7 9 1007.6 - - - - - - - - -
12/07:00pm 28.8 ENE 8 9 1007.3 - - - - - - - - -
12/06:30pm 28.8 ENE 5 9 1006.8 - - - - - - - - -
12/06:00pm 28.8 ENE 7 11 1006.5 - - - - - - - - -
12/05:30pm 29.1 NE 6 12 1006.2 - - - - - - - - -
12/05:00pm 29.2 NE 6 14 1005.7 - - - - - - - - -
12/04:30pm 29.1 NE 7 12 1005.7 - - - - - - - - -
12/04:00pm 28.8 NNE 9 13 1005.6 - - - - - - - - -
12/03:30pm 28.9 NNE 7 12 1005.7 - - - - - - - - -
12/03:00pm 29.5 NE 6 10 1005.8 - - - - - - - - -
12/02:30pm 29.1 NE 6 11 1006.3 - - - - - - - - -
12/02:00pm 29.6 NNE 6 9 1006.6 - - - - - - - - -
12/01:30pm 29.3 NE 6 11 1006.8 - - - - - - - - -
12/01:00pm 29.4 ENE 5 7 1007.3 - - - - - - - - -
12/12:30pm 29.0 E 6 8 1007.7 - - - - - - - - -
12/12:00pm 28.8 E 5 7 1008.4 - - - - - - - - -
12/11:30am 28.7 E 8 9 1008.9 - - - - - - - - -
12/11:00am 28.8 ESE 8 10 1009.2 - - - - - - - - -
12/10:30am 28.7 ESE 6 7 1009.5 - - - - - - - - -
12/10:00am 28.3 SE 4 6 1009.7 - - - - - - - - -
12/09:30am 28.0 SSE 3 5 1010.0 - - - - - - - - -
12/09:00am 27.8 SSE 5 7 1010.0 - - - - - - - - -
12/08:30am 27.5 SSE 7 9 1010.0 - - - - - - - - -
12/08:00am 27.4 S 7 9 1010.0 - - - - - - - - -
12/07:30am 27.0 S 7 9 1009.8 - - - - - - - - -
12/07:00am 27.0 S 8 10 1009.6 - - - - - - - - -
12/06:30am 25.9 WNW 3 5 1009.3 - - - - - - - - -
12/06:00am 26.0 SW 3 5 1009.1 - - - - - - - - -
12/05:30am 25.4 WNW 6 7 1008.6 - - - - - - - - -
12/05:00am 25.7 WSW 3 6 1008.4 - - - - - - - - -
12/04:30am 25.7 WSW 4 7 1008.1 - - - - - - - - -
12/04:00am 25.7 WSW 3 5 1008.2 - - - - - - - - -
12/03:30am 26.2 SW 3 6 1008.1 - - - - - - - - -
12/03:00am 27.0 S 8 9 1007.9 - - - - - - - - -
12/02:30am 27.4 S 7 9 1008.0 - - - - - - - - -
12/02:00am 27.7 SSE 6 8 1008.1 - - - - - - - - -
12/01:30am 28.0 SSE 8 10 1008.5 - - - - - - - - -
12/01:00am 28.3 SE 9 12 1008.6 - - - - - - - - -
12/12:30am 28.4 ESE 10 12 1009.0 - - - - - - - - -
12/12:00am 28.5 E 9 12 1009.1 - - - - - - - - -
 
Date/Time
EST
Temp

°C
Wind Pressure Rain
since 9am
mm
Weather Cloud Vis
km
Sea
Height
m
Swell
Dir
 
Speed
knots
Gust
knots
hPa Trend Height
m
Period
s
Dir
11/11:30pm 28.6 ESE 9 11 1009.3 - - - - - - - - -
11/11:00pm 28.4 E 10 13 1009.3 - - - - - - - - -
11/10:30pm 28.6 E 9 11 1009.5 - - - - - - - - -
11/10:00pm 28.6 E 8 10 1009.5 - - - - - - - - -
11/09:30pm 28.7 E 9 11 1009.4 - - - - - - - - -
11/09:00pm 28.8 E 9 12 1009.0 - - - - - - - - -
11/08:30pm 28.7 E 9 12 1008.6 - - - - - - - - -
11/08:00pm 28.7 E 10 11 1008.4 - - - - - - - - -
11/07:30pm 28.7 E 9 12 1008.2 - - - - - - - - -
11/07:00pm 28.6 E 9 11 1008.0 - - - - - - - - -
11/06:30pm 28.6 E 8 11 1007.7 - - - - - - - - -
11/06:00pm 28.7 E 8 11 1007.6 - - - - - - - - -
11/05:30pm 28.7 ENE 12 14 1007.2 - - - - - - - - -
11/05:00pm 28.7 E 10 13 1007.1 - - - - - - - - -
11/04:30pm 28.7 E 12 14 1006.9 - - - - - - - - -
11/04:00pm 28.5 E 12 14 1006.8 - - - - - - - - -
11/03:30pm 28.6 E 13 15 1006.6 - - - - - - - - -
11/03:00pm 27.1 E 14 18 1007.0 - - - - - - - - -
11/02:57pm 26.9 ESE 15 19 1007.2 - - - - - - - - -
11/02:30pm 26.4 SE 20 24 1007.5 - - - - - - - - -
11/02:23pm 27.1 ESE 18 24 1007.7 - - - - - - - - -
11/02:00pm 28.3 E 13 17 1007.4 - - - - - - - - -
11/01:30pm 28.4 E 13 17 1007.6 - - - - - - - - -
11/01:00pm 28.5 E 14 16 1007.9 - - - - - - - - -
11/12:30pm 28.5 E 13 15 1008.5 - - - - - - - - -
11/12:00pm 28.4 E 11 14 1008.9 - - - - - - - - -
11/11:30am 28.4 ESE 7 9 1009.0 - - - - - - - - -
11/11:00am 28.3 ESE 7 10 1009.3 - - - - - - - - -
11/10:30am 28.1 SE 8 11 1009.4 - - - - - - - - -
11/10:00am 27.7 SSE 10 13 1009.6 - - - - - - - - -

Other Formats:

Comma delimited format used in spreadsheet applications
http://www.bom.gov.au/fwo/IDQ60701/IDQ60701.94297.axf

JavaScript Object Notation format (JSON) in row-major order
http://www.bom.gov.au/fwo/IDQ60701/IDQ60701.94297.json